Des Plaines, Illinois
Current Conditions -  °F | °C
As of 10:51 PM on Monday 26 Jan 2015 (Local Time) from KORD Reporting Station
Light Snow Light Snow  
Wind Chill: 21°   Ceiling: 1000
Heat Index: 26°   Visibility: 4mi
Dew Point: 24°   Wind: 5mph
Humidity: 92%   Direction: 140°SE
Pressure: 29.9"   Gusts: NA
Location:  42.04°N, 87.89°W
Report Text: KORD 270451Z 14004KT 4SM -SN BR OVC010 M03/M04 A2990 RMK AO2 SLP134 P0000 T10331044
Loading
Personal Weather Stations






























Interactive Weather Map New forecast layout! Learn more

10-Day Weather Forecast

Advertisements
Track Severe Weather on mobile